Airfield :
LOGIN :

Register | Disclaimer

   EN    FR    IT 

 










Legend :    VFR   Marginal VFR   IFR   Intensive IFR   Very Intensive IFR
Visi :
Ceiling :
>= 8 km
>= 3000ft
5 to 8 km
1000 to 3000 ft
1500m to 5 km
500 to 1000 ft
800 to 1500m
200 to 500 ft
< 800m
< 200 ft
Symbols :   Thunderstorms  Fog  Heavy snow  Heavy precipitations  Wind > 20 kt
SIGMETs :     Misc.  Thunderstorms  Icing  Turbulence  Mountain Waves  Volcanic Ashes






- Airport Elevation : 26 ft
- IATA code : BIA


LFKB - Bastia

CURRENT METAR :
  • 201100Z AUTO 12010KT 080V160 CAVOK 18/04 Q1016 TEMPO FEW030 FEW033TCU

EXPIRED METARs :
  • 201030Z AUTO 11008KT CAVOK 18/04 Q1016 TEMPO FEW030 FEW033TCU
  • 201000Z AUTO 12008KT 090V160 CAVOK 17/03 Q1017 TEMPO FEW030 FEW033TCU
  • 200930Z AUTO 11008KT 080V150 CAVOK 17/06 Q1017 TEMPO FEW030 FEW033TCU
  • 200900Z AUTO 12006KT 070V160 CAVOK 17/05 Q1017 NOSIG
  • 200830Z AUTO 11004KT 050V190 CAVOK 17/05 Q1016 NOSIG

TAF TAF LFKB
Valid from the 20 at 09:00 until the 21 at 09:00 UTC


200800Z 2009/2109 12010KT 9999 FEW030 TX18/2012Z TN07/2104Z
TEMPO 2011/2015 FEW030 FEW033TCU
BECMG 2016/2018 22008KT
ATIS : +33 4 95 59 19 40



MET'MAP, your aeronautical weather chart ! - Copyright ORBIFLY December 2007 - Disclaimer

ORBIFLY MET'MAP TEAM :

Programming & Development : Alexandra Zaïnal
Concept & original design : Baudouin d'Aumeries
Assistance for programming : Marc-Olivier Méhu
Technical & hardware support : Manuel Goepfert

Contact : metmap@orbifly.com




SOURCES & CREDITS :

   NOAA